Aérodrome :
LOGIN :

S'inscrire | Disclaimer

   EN    FR    IT 

 










Légende :    VFR   VFR Marginal   IFR   IFR Intensif   IFR Très Intensif
Visi : 
Plafond : 
>= 8 km
>= 3000ft
5 à 8 km
1000 à 3000 ft
1500m à 5 km
500 à 1000 ft
800 à 1500m
200 à 500 ft
< 800m
< 200 ft
Symboles :   Orages  Brouillard  Fortes neiges  Fortes précipitations  Vent > 20 kt
SIGMETs :   Divers  Orages  Givrage  Turbulence  Onde Orograph.  Cendres Volcan.







- Altitude de l'aérodrome : 0 ft


ETEB - Ansbach Army Heliport

DERNIER METAR :
  • 131811Z 18010KT 9000 -SN OVC006 00/M01 A2962 RMK AO2A SNE1756 SLP069 $

METARs EXPIRÉS :
  • 131756Z 17012KT 4000 -SN FEW005 BKN014 00/M01 A2963 RMK UPB1657E01RAB01E15SNB15E38SNB38E54 SLP072 60001 T00001011 10027 20000 57027 $
  • 131751Z 17013KT 3000 -SN FEW005 BKN014 00/M01 A2962 RMK UPB1657E01RAB01E15SNB15E38SNB38 PRESFR SLP069 $
  • 131712Z AUTO 19012G22KT 6000 -RA BKN015 01/M03 A2966 RMK AO2 UPB1657E01RAB01 SLP080 $
  • 131657Z AUTO 19010KT 9999 -UP FEW018 SCT034 02/M04 A2965 RMK AO2 UPB57 SLP077 $
  • 131656Z AUTO 20011KT 9999 FEW018 SCT034 02/M04 A2965 RMK AO2 SNE1557RAB1557E06 SLP077 P0000 T00171040 $
  • 131620Z AUTO 17011KT 9999 FEW007 SCT033 01/M03 A2966 RMK AO2 SNE1557RAB1557E06 SLP080 $
  • 131606Z AUTO 17011KT 9999 SCT011 01/M03 A2967 RMK AO2 SNE1557RAB1557E06 SLP084 $
  • 131556Z AUTO 18013KT 8000 -SN BKN012 01/M03 A2968 RMK AO2 UPB46E48SNB48 BKN V FEW SLP087 P0000 T00121029 $
  • 131546Z AUTO 18013KT 9999 -UP FEW014 02/M04 A2969 RMK AO2 UPB46 SLP089 $

TAF AMD TAF ETEB
Valide du 13 à 18h jusqu'au 14 à 20h UTC


131824Z 1318/1420 20012KT 9000 -SHRASN OVC006 QNH2957INS
TEMPO 1318/1320 SCT006 BKN015
BECMG 1319/1320 19012G20KT 6000 -SHRA FEW006 BKN015 610159 510003 QNH2940INS
TEMPO 1320/1322 3200 -SHRASN BKN010
BECMG 1400/1401 20025G35KT 9999 NSW BKN020 610209 520003 QNH2941INS
TEMPO 1404/1407 21035G45KT
BECMG 1408/1409 25012G20KT 9999 SCT030 520003 QNH2947INS
TEMPO 1409/1412 25020G35KT TX05/1400Z TN00/1318Z
Pas de NOTAMs connus pour ce terrain.



MET'MAP, la Météo Aéronautique d'un coup d'oeil ! - Copyright ORBIFLY Décembre 2007 - Disclaimer

ORBIFLY MET'MAP TEAM :

Programmation & Développement : Alexandra Zaïnal
Conception & Développement : Baudouin d'Aumeries
Co-Programmation & Développement : Marc-Olivier Méhu
Soutien technique & logistique : Manuel Goepfert

Contact : metmap@orbifly.com




SOURCES & CREDITS :

   NOAA